Time;durP1;ratioP1;P1;durP2;ratioP2;P2;SDS_P1;SDS_P2;PMS_P1;PMS_P2;Temp;Humidity;BMP_temperature;BMP_pressure;BME280_temperature;BME280_humidity;BME280_pressure;Samples;Min_cycle;Max_cycle;Signal;HPM_P1;HPM_P2
2023/03/31 10:17:56;;;;;;;75.80;31.60;;;12.50;99.90;;;;;;6302691;22;20214;-94
2023/03/31 10:20:38;;;;;;;51.70;23.50;;;12.70;99.90;;;;;;6336703;22;20181;-93
2023/03/31 10:23:22;;;;;;;71.13;44.55;;;12.80;99.90;;;;;;6310333;22;20160;-95
2023/03/31 10:25:49;;;;;;;66.47;59.95;;;12.60;99.90;;;;;;6310506;22;20176;-94
2023/03/31 10:28:18;;;;;;;11.60;10.48;;;12.60;99.90;;;;;;6310114;22;20160;-95
2023/03/31 10:30:50;;;;;;;6.70;4.70;;;12.50;99.90;;;;;;6308403;22;20159;-94
2023/03/31 10:33:19;;;;;;;6.40;3.88;;;12.50;99.90;;;;;;6310456;22;20143;-94
2023/03/31 10:35:49;;;;;;;7.75;7.03;;;12.50;99.90;;;;;;6310258;22;20175;-95
2023/03/31 10:38:22;;;;;;;18.95;16.98;;;12.30;99.90;;;;;;6310208;22;20156;-95
2023/03/31 10:40:55;;;;;;;6.00;4.63;;;12.40;99.90;;;;;;6310226;22;20168;-94
2023/03/31 10:43:47;;;;;;;11.20;10.10;;;12.70;99.90;;;;;;6336297;22;20141;-94
2023/03/31 10:46:13;;;;;;;13.25;9.52;;;12.80;99.90;;;;;;6310146;22;20186;-95
2023/03/31 10:48:41;;;;;;;10.68;8.52;;;12.80;99.90;;;;;;6310380;22;20155;-94
2023/03/31 10:51:26;;;;;;;48.67;31.05;;;12.70;99.90;;;;;;6310274;22;20139;-93
2023/03/31 10:54:02;;;;;;;35.95;32.45;;;12.50;99.90;;;;;;6310244;22;20160;-94
2023/03/31 10:56:50;;;;;;;41.55;30.23;;;12.50;99.90;;;;;;6310197;22;20171;-95
2023/03/31 10:59:37;;;;;;;99.07;64.63;;;12.50;99.90;;;;;;6308766;22;20172;-94
2023/03/31 13:13:10;;;;;;;3.70;3.30;;;15.20;99.90;;;;;;6277174;22;21295;-77
2023/03/31 13:15:35;;;;;;;3.03;1.98;;;15.40;99.90;;;;;;6214748;23;20203;-95
2023/03/31 13:18:04;;;;;;;6.35;5.75;;;15.40;99.80;;;;;;6183886;23;20146;-95
2023/03/31 13:20:39;;;;;;;10.65;8.15;;;15.30;98.90;;;;;;6186614;23;20193;-95
2023/03/31 13:23:33;;;;;;;17.67;14.38;;;15.20;99.10;;;;;;6189347;23;20150;-95
2023/03/31 13:26:01;;;;;;;29.73;25.58;;;15.20;99.20;;;;;;6188562;23;20159;-93
2023/03/31 13:28:44;;;;;;;16.17;12.55;;;14.90;99.90;;;;;;6188628;23;20226;-95
2023/03/31 13:31:13;;;;;;;57.13;43.72;;;14.90;99.90;;;;;;6188033;23;20190;-94
2023/03/31 13:33:56;;;;;;;53.58;37.78;;;14.80;99.90;;;;;;6187388;23;20151;-95
2023/03/31 13:51:26;;;;;;;10.45;4.70;;;13.20;99.90;;;;;;6271330;22;20192;31
2023/03/31 13:54:31;;;;;;;17.40;11.52;;;12.90;99.90;;;;;;6216258;23;20247;-78
2023/03/31 14:00:56;;;;;;;7.20;3.25;;;12.60;99.90;;;;;;6186242;23;20225;-78
2023/03/31 14:04:10;;;;;;;9.40;5.00;;;12.50;99.90;;;;;;6160448;23;20146;-78
2023/03/31 14:07:07;;;;;;;10.23;6.53;;;12.60;99.90;;;;;;6160088;23;20182;-78
2023/03/31 14:10:21;;;;;;;8.55;4.93;;;12.60;99.90;;;;;;6185709;23;20488;-78
2023/03/31 14:16:39;;;;;;;7.75;2.50;;;12.30;99.90;;;;;;6186132;23;20266;-78
2023/03/31 14:19:46;;;;;;;14.68;6.32;;;12.00;99.90;;;;;;6159465;23;20185;-77
2023/03/31 14:25:41;;;;;;;8.65;3.33;;;11.40;99.90;;;;;;6186067;23;20158;-78
2023/03/31 14:31:53;;;;;;;5.85;3.90;;;10.70;99.90;;;;;;6186016;23;20482;-77
2023/03/31 14:35:01;;;;;;;14.40;3.17;;;10.50;99.90;;;;;;6186114;23;20131;-77
2023/03/31 14:37:30;;;;;;;7.22;5.82;;;10.40;99.90;;;;;;6159007;23;20181;-84
2023/03/31 14:40:04;;;;;;;10.48;7.22;;;10.40;99.90;;;;;;6159996;23;20185;-77
2023/03/31 14:42:41;;;;;;;6.47;5.63;;;10.40;99.90;;;;;;6159166;23;20209;-78
2023/03/31 14:45:15;;;;;;;6.03;3.15;;;10.40;99.90;;;;;;6159628;23;20216;-78
2023/03/31 14:47:41;;;;;;;6.25;2.17;;;10.60;99.90;;;;;;6160488;23;20258;-78
2023/03/31 14:50:17;;;;;;;3.35;1.90;;;10.70;99.90;;;;;;6159987;23;20190;-78
2023/03/31 14:52:51;;;;;;;34.72;24.45;;;10.80;99.90;;;;;;6159966;23;20260;-77
2023/03/31 14:55:21;;;;;;;33.83;20.33;;;11.00;99.90;;;;;;6159580;23;20155;-78
2023/03/31 14:57:48;;;;;;;50.30;37.22;;;11.20;99.90;;;;;;6185916;23;20178;-78
2023/03/31 15:00:19;;;;;;;22.38;16.48;;;11.60;99.90;;;;;;6186204;23;20163;-78
2023/03/31 15:02:45;;;;;;;71.68;55.03;;;11.90;99.90;;;;;;6159782;23;20147;-78
2023/03/31 15:05:36;;;;;;;51.47;40.28;;;12.30;99.90;;;;;;6159605;23;20234;-78
2023/03/31 15:08:10;;;;;;;125.25;94.55;;;12.50;99.90;;;;;;6149197;23;20155;-78
2023/03/31 15:10:44;;;;;;;78.93;61.08;;;12.50;99.90;;;;;;6184570;23;20258;-77
2023/03/31 15:13:17;;;;;;;44.55;34.45;;;12.40;99.90;;;;;;6160071;23;20154;-78
2023/03/31 15:15:45;;;;;;;85.00;54.85;;;12.30;99.90;;;;;;6160347;23;20158;-78
2023/03/31 15:18:15;;;;;;;96.68;55.67;;;12.40;99.90;;;;;;6160422;23;20167;-78
2023/03/31 15:20:43;;;;;;;131.35;82.53;;;12.40;99.90;;;;;;6160110;23;20514;-78
2023/03/31 15:23:27;;;;;;;12.40;10.02;;;12.50;99.90;;;;;;6161862;23;20165;-78
2023/03/31 15:26:10;;;;;;;13.15;10.20;;;12.50;99.90;;;;;;6161333;23;20233;-78
2023/03/31 15:28:43;;;;;;;9.48;8.57;;;12.50;99.90;;;;;;6161538;23;20245;-78
2023/03/31 15:31:10;;;;;;;8.77;4.32;;;12.40;99.90;;;;;;6162016;23;20519;-78
2023/03/31 15:33:40;;;;;;;9.23;6.97;;;12.40;99.90;;;;;;6162359;23;20238;-78
2023/03/31 15:36:06;;;;;;;5.57;3.88;;;12.50;99.90;;;;;;6161335;23;20182;-78
2023/03/31 15:38:32;;;;;;;5.72;3.90;;;12.40;99.90;;;;;;6187869;23;20285;-78
2023/03/31 15:40:59;;;;;;;4.18;3.00;;;12.40;99.90;;;;;;6161687;23;20222;-78
2023/03/31 15:43:28;;;;;;;6.85;5.25;;;12.40;99.90;;;;;;6187882;23;20179;-78
2023/03/31 15:45:59;;;;;;;11.60;7.72;;;12.30;99.90;;;;;;6187588;23;20178;-78
2023/03/31 15:48:27;;;;;;;12.40;7.88;;;12.30;99.90;;;;;;6162583;23;20178;-78
2023/03/31 15:51:00;;;;;;;4.97;3.40;;;12.30;99.90;;;;;;6164348;23;20163;-78
2023/03/31 15:53:35;;;;;;;5.28;3.30;;;12.30;99.90;;;;;;6163152;23;20171;-78
2023/03/31 15:56:00;;;;;;;7.72;4.00;;;12.20;99.90;;;;;;6161073;23;20182;-78
2023/03/31 15:58:53;;;;;;;10.50;7.00;;;12.10;99.90;;;;;;6187930;23;20155;-78
2023/03/31 16:01:20;;;;;;;80.60;47.92;;;12.30;99.90;;;;;;6187509;23;20139;-78
2023/03/31 16:03:46;;;;;;;133.45;63.72;;;12.40;99.90;;;;;;6161349;23;20166;-78
2023/03/31 16:06:34;;;;;;;70.13;36.30;;;12.60;99.90;;;;;;6185767;23;20225;-78
2023/03/31 16:09:06;;;;;;;139.02;74.18;;;12.70;99.90;;;;;;6160967;23;20195;-78
2023/03/31 16:11:45;;;;;;;124.20;62.00;;;12.70;99.90;;;;;;6185865;23;20194;-77
2023/03/31 16:14:19;;;;;;;47.42;26.00;;;12.60;99.90;;;;;;6186575;23;20151;-77
2023/03/31 16:16:53;;;;;;;34.97;18.95;;;12.50;99.90;;;;;;6161837;23;20202;-77
2023/03/31 16:19:23;;;;;;;69.47;41.47;;;12.50;99.90;;;;;;6185811;23;20183;-77
2023/03/31 16:21:52;;;;;;;48.35;36.13;;;12.40;99.90;;;;;;6161146;23;20159;-77
2023/03/31 16:24:20;;;;;;;156.18;126.40;;;12.30;99.90;;;;;;6161275;23;20289;-77
2023/03/31 16:26:46;;;;;;;53.30;41.67;;;12.10;99.90;;;;;;6160775;23;20179;-78
2023/03/31 16:29:20;;;;;;;31.35;19.27;;;12.10;99.90;;;;;;6187453;23;20155;-78
2023/03/31 16:31:45;;;;;;;13.98;9.70;;;11.90;99.90;;;;;;6161570;23;20201;-78
2023/03/31 16:34:11;;;;;;;44.47;26.02;;;11.90;99.90;;;;;;6160781;23;20159;-78
2023/03/31 16:36:37;;;;;;;11.70;8.40;;;11.80;99.90;;;;;;6160821;23;20210;-78
2023/03/31 16:39:04;;;;;;;15.68;9.02;;;11.60;99.90;;;;;;6160653;23;20195;-78
2023/03/31 16:41:31;;;;;;;15.32;5.80;;;11.50;99.90;;;;;;6185900;23;20580;-78
2023/03/31 16:43:57;;;;;;;4.72;3.95;;;11.20;99.90;;;;;;6161147;23;20163;-78
2023/03/31 16:46:23;;;;;;;3.63;2.38;;;11.10;99.90;;;;;;6167227;23;20237;-78
2023/03/31 16:48:50;;;;;;;3.42;2.33;;;11.00;99.90;;;;;;6163091;23;20174;-78
2023/03/31 16:51:16;;;;;;;10.18;6.25;;;10.90;99.90;;;;;;6189531;23;20151;-78
2023/03/31 16:53:43;;;;;;;6.72;4.93;;;10.80;99.90;;;;;;6194416;23;20140;-78
2023/03/31 16:56:10;;;;;;;11.80;7.43;;;10.80;99.90;;;;;;6191956;23;20171;-78
2023/03/31 16:58:37;;;;;;;5.70;3.92;;;10.70;99.90;;;;;;6197906;23;20151;-77
2023/03/31 17:01:05;;;;;;;6.28;5.22;;;10.70;99.90;;;;;;6166341;23;20213;-78
2023/03/31 17:03:31;;;;;;;5.45;4.80;;;10.80;99.90;;;;;;6164351;23;20158;-77
2023/03/31 17:05:57;;;;;;;38.47;25.67;;;10.80;99.90;;;;;;6165171;23;20175;-77
2023/03/31 17:08:26;;;;;;;31.98;21.27;;;10.80;99.90;;;;;;6162111;23;20205;-78
2023/03/31 17:11:04;;;;;;;51.65;31.33;;;10.80;99.90;;;;;;6160950;23;20163;-77
2023/03/31 17:13:31;;;;;;;16.65;12.07;;;10.80;99.90;;;;;;6187363;23;20150;-79
2023/03/31 17:15:57;;;;;;;65.03;31.42;;;10.70;99.90;;;;;;6161071;23;20186;-78
2023/03/31 17:18:22;;;;;;;76.15;40.30;;;10.60;99.90;;;;;;6160286;23;20163;-78
2023/03/31 17:20:48;;;;;;;196.43;97.70;;;10.50;99.90;;;;;;6160525;23;20636;-78
2023/03/31 17:23:14;;;;;;;234.10;112.20;;;10.50;99.90;;;;;;6160646;23;20213;-77
2023/03/31 17:25:47;;;;;;;71.05;40.60;;;10.50;99.90;;;;;;6160513;23;20497;-81
2023/03/31 17:28:12;;;;;;;108.20;60.35;;;10.40;99.90;;;;;;6160389;23;20591;-78
2023/03/31 17:30:38;;;;;;;75.32;43.55;;;10.40;99.90;;;;;;6160675;23;20194;-77
2023/03/31 17:33:04;;;;;;;72.32;43.28;;;10.30;99.90;;;;;;6160409;23;20163;-78
2023/03/31 17:35:29;;;;;;;124.10;68.05;;;10.30;99.90;;;;;;6161899;23;20246;-78
2023/03/31 17:37:55;;;;;;;49.13;29.40;;;10.20;99.90;;;;;;6161575;23;20163;-78
2023/03/31 17:40:22;;;;;;;55.47;34.85;;;10.20;99.90;;;;;;6161041;23;20183;-78
2023/03/31 17:42:48;;;;;;;42.00;26.70;;;10.10;99.90;;;;;;6161525;23;20155;-78
2023/03/31 17:45:14;;;;;;;32.33;21.33;;;10.10;99.90;;;;;;6161992;23;20219;-78
2023/03/31 17:47:40;;;;;;;145.07;131.50;;;10.10;99.90;;;;;;6161120;23;20187;-78
2023/03/31 17:50:07;;;;;;;84.60;77.22;;;10.10;99.90;;;;;;6162509;23;20166;-78
2023/03/31 17:52:34;;;;;;;18.35;16.70;;;10.10;99.90;;;;;;6161517;23;20194;-78
2023/03/31 17:55:00;;;;;;;5.93;3.28;;;10.10;99.90;;;;;;6161593;23;20162;-78
2023/03/31 17:57:26;;;;;;;5.45;4.78;;;10.10;99.90;;;;;;6185990;23;20217;-78
2023/03/31 17:59:51;;;;;;;6.20;5.53;;;10.20;99.90;;;;;;6161193;23;20557;-78
2023/03/31 18:02:17;;;;;;;4.03;2.53;;;10.20;99.90;;;;;;6160343;23;20158;-78
2023/03/31 18:04:43;;;;;;;9.27;7.20;;;10.20;99.90;;;;;;6160540;23;20159;-78
2023/03/31 18:07:09;;;;;;;15.00;11.05;;;10.20;99.90;;;;;;6186875;23;20623;-78
2023/03/31 18:09:35;;;;;;;17.35;13.48;;;10.20;99.90;;;;;;6160636;23;20186;-78
2023/03/31 18:12:01;;;;;;;16.02;10.60;;;10.20;99.90;;;;;;6187069;23;20587;-78
2023/03/31 18:14:27;;;;;;;19.50;13.45;;;10.20;99.90;;;;;;6186048;23;20159;-78
2023/03/31 18:16:53;;;;;;;26.40;17.52;;;10.10;99.90;;;;;;6160382;23;20189;-78
2023/03/31 18:19:18;;;;;;;27.23;16.02;;;10.10;99.90;;;;;;6160485;23;20183;-78
2023/03/31 18:21:44;;;;;;;49.10;25.67;;;10.10;99.90;;;;;;6160621;23;20162;-78
2023/03/31 18:24:09;;;;;;;105.60;80.15;;;10.10;99.90;;;;;;6160797;23;20331;-78
2023/03/31 18:26:35;;;;;;;115.78;77.68;;;10.10;99.90;;;;;;6161346;23;20185;-78
2023/03/31 18:29:00;;;;;;;247.98;140.27;;;10.10;99.90;;;;;;6161480;23;20487;-78
2023/03/31 18:31:26;;;;;;;40.17;26.98;;;10.00;99.90;;;;;;6186398;23;20155;-78
2023/03/31 18:33:53;;;;;;;17.13;10.32;;;10.00;99.90;;;;;;6161024;23;20159;-78
2023/03/31 18:36:20;;;;;;;11.63;6.95;;;10.00;99.90;;;;;;6187265;23;20195;-78
2023/03/31 18:38:47;;;;;;;9.88;8.00;;;10.00;99.90;;;;;;6161840;23;20155;-78
2023/03/31 18:41:13;;;;;;;33.25;29.85;;;10.00;99.90;;;;;;6160457;23;20660;-78
2023/03/31 18:43:39;;;;;;;87.50;79.45;;;10.00;99.90;;;;;;6161719;23;20182;-78
2023/03/31 18:46:05;;;;;;;28.27;25.50;;;10.00;99.90;;;;;;6160905;23;20644;-78
2023/03/31 18:48:31;;;;;;;25.95;23.48;;;10.00;99.90;;;;;;6161146;23;20159;-78
2023/03/31 18:50:57;;;;;;;7.93;5.30;;;10.00;99.90;;;;;;6161933;23;20159;-78
2023/03/31 18:53:24;;;;;;;6.00;4.22;;;10.00;99.90;;;;;;6160531;23;20179;-78
2023/03/31 18:55:51;;;;;;;6.68;5.93;;;10.00;99.90;;;;;;6160608;23;20221;-78
2023/03/31 18:58:17;;;;;;;6.25;5.45;;;10.00;99.90;;;;;;6186407;23;20218;-78
2023/03/31 19:00:44;;;;;;;6.15;5.53;;;10.00;99.90;;;;;;6161037;23;20209;-78
2023/03/31 19:03:09;;;;;;;8.60;5.15;;;10.00;99.90;;;;;;6159963;23;20154;-78
2023/03/31 19:05:35;;;;;;;7.68;4.43;;;10.00;99.90;;;;;;6186779;23;20166;-78
2023/03/31 19:08:01;;;;;;;4.72;2.60;;;9.90;99.90;;;;;;6186306;23;20213;-79
2023/03/31 19:10:27;;;;;;;4.35;1.92;;;9.90;99.90;;;;;;6160583;23;20158;-79
2023/03/31 19:12:53;;;;;;;5.03;2.30;;;9.80;99.90;;;;;;6161601;23;20190;-79
2023/03/31 19:15:20;;;;;;;4.95;2.13;;;9.80;99.90;;;;;;6160403;23;20584;-79
2023/03/31 19:17:45;;;;;;;5.93;3.08;;;9.80;99.90;;;;;;6160028;23;20203;-79
2023/03/31 19:20:15;;;;;;;6.72;2.78;;;9.80;99.90;;;;;;6186848;23;20186;-79
2023/03/31 19:22:43;;;;;;;4.50;2.78;;;9.70;99.90;;;;;;6160267;23;20229;-79
2023/03/31 19:25:09;;;;;;;25.88;21.15;;;9.70;99.90;;;;;;6160430;23;20151;-79
2023/03/31 19:27:35;;;;;;;11.05;9.32;;;9.70;99.90;;;;;;6186245;23;20210;-79
2023/03/31 19:30:00;;;;;;;8.20;5.30;;;9.80;99.90;;;;;;6159740;23;20167;-78
2023/03/31 19:32:26;;;;;;;8.85;6.05;;;9.80;99.90;;;;;;6160141;23;20163;-78
2023/03/31 19:34:53;;;;;;;5.07;3.40;;;9.80;99.90;;;;;;6160929;23;20151;-78
2023/03/31 19:37:19;;;;;;;6.40;2.08;;;9.80;99.90;;;;;;6159831;23;20186;-78
2023/03/31 19:39:45;;;;;;;4.07;2.28;;;9.80;99.90;;;;;;6160287;23;20182;-79
2023/03/31 19:42:11;;;;;;;3.85;1.90;;;9.80;99.90;;;;;;6159957;23;20166;-78
2023/03/31 19:44:36;;;;;;;4.13;1.88;;;9.80;99.90;;;;;;6159964;23;20155;-79
2023/03/31 19:47:02;;;;;;;4.10;1.67;;;9.80;99.90;;;;;;6159869;23;20257;-78
2023/03/31 19:49:28;;;;;;;3.72;1.85;;;9.80;99.90;;;;;;6161006;23;20662;-78
2023/03/31 19:51:54;;;;;;;3.38;1.73;;;9.80;99.90;;;;;;6160464;23;20728;-78
2023/03/31 19:54:20;;;;;;;14.77;11.98;;;9.80;99.90;;;;;;6186545;23;20182;-78
2023/03/31 19:56:47;;;;;;;34.85;28.10;;;9.70;99.90;;;;;;6185319;23;20178;-78
2023/03/31 19:59:12;;;;;;;43.85;33.80;;;9.70;99.90;;;;;;6159823;23;20517;-78
2023/03/31 20:01:38;;;;;;;44.42;33.00;;;9.70;99.90;;;;;;6160018;23;20151;-78
2023/03/31 20:04:03;;;;;;;39.70;35.10;;;9.70;99.90;;;;;;6185245;23;20174;-78
2023/03/31 20:06:30;;;;;;;12.88;10.25;;;9.70;99.90;;;;;;6186481;23;20246;-78
2023/03/31 20:09:01;;;;;;;7.88;6.20;;;9.70;99.90;;;;;;6162396;23;20175;-78
2023/03/31 20:11:29;;;;;;;13.90;9.75;;;9.70;99.90;;;;;;6162448;23;20143;-78
2023/03/31 20:13:56;;;;;;;8.65;5.55;;;9.70;99.90;;;;;;6161780;23;20180;-78
2023/03/31 20:16:24;;;;;;;5.28;3.17;;;9.70;99.90;;;;;;6188502;23;20175;-78
2023/03/31 20:18:52;;;;;;;8.90;4.45;;;9.70;99.90;;;;;;6162093;23;20234;-78
2023/03/31 20:21:21;;;;;;;7.75;2.70;;;9.70;99.90;;;;;;6162067;23;20161;-78
2023/03/31 20:23:47;;;;;;;7.85;3.63;;;9.70;99.90;;;;;;6161604;23;20163;-78
2023/03/31 20:26:16;;;;;;;7.68;3.28;;;9.70;99.90;;;;;;6187732;23;20185;-78
2023/03/31 20:28:42;;;;;;;7.35;2.67;;;9.70;99.90;;;;;;6161237;23;20155;-78
2023/03/31 20:31:19;;;;;;;6.32;2.28;;;9.70;99.90;;;;;;6161861;23;20493;-78
2023/03/31 20:33:45;;;;;;;5.45;2.70;;;9.80;99.90;;;;;;6187827;23;20145;-78
2023/03/31 20:36:13;;;;;;;3.90;1.70;;;9.80;99.90;;;;;;6161503;23;20186;-78
2023/03/31 20:38:42;;;;;;;4.50;2.10;;;9.70;99.90;;;;;;6161815;23;20166;-78
2023/03/31 20:41:09;;;;;;;5.07;1.77;;;9.70;99.90;;;;;;6162677;23;20181;-78
2023/03/31 20:43:36;;;;;;;11.35;8.65;;;9.60;99.90;;;;;;6188385;23;20151;-78
2023/03/31 20:46:04;;;;;;;39.75;28.58;;;9.60;99.90;;;;;;6161601;23;20179;-78
2023/03/31 20:48:31;;;;;;;15.75;10.65;;;9.50;99.90;;;;;;6162473;23;20166;-78
2023/03/31 20:50:57;;;;;;;6.43;3.20;;;9.40;99.90;;;;;;6187641;23;20178;-78
2023/03/31 20:53:23;;;;;;;9.68;2.88;;;9.40;99.90;;;;;;6161786;23;20174;-78
2023/03/31 20:55:49;;;;;;;4.60;2.50;;;9.40;99.90;;;;;;6161719;23;20206;-78
2023/03/31 20:58:15;;;;;;;6.78;2.60;;;9.40;99.90;;;;;;6162385;23;20163;-78
2023/03/31 21:00:41;;;;;;;6.68;2.28;;;9.40;99.90;;;;;;6161198;23;20178;-78
2023/03/31 21:03:07;;;;;;;4.65;2.10;;;9.40;99.90;;;;;;6161086;23;20246;-78
2023/03/31 21:05:43;;;;;;;6.00;1.70;;;9.50;99.90;;;;;;6162105;23;20155;-78
2023/03/31 21:08:10;;;;;;;4.97;1.70;;;9.60;99.90;;;;;;6187856;23;20158;-78
2023/03/31 21:10:41;;;;;;;5.22;1.77;;;9.50;99.90;;;;;;6161061;23;20165;-78
2023/03/31 21:13:07;;;;;;;5.65;1.80;;;9.50;99.90;;;;;;6161540;23;20186;-78
2023/03/31 21:15:32;;;;;;;6.38;1.88;;;9.40;99.90;;;;;;6161017;23;20604;-78
2023/03/31 21:17:58;;;;;;;6.88;1.65;;;9.40;99.90;;;;;;6160520;23;20246;-78
2023/03/31 21:20:23;;;;;;;6.38;1.80;;;9.40;99.90;;;;;;6160772;23;20186;-79
2023/03/31 21:22:49;;;;;;;3.95;1.75;;;9.40;99.90;;;;;;6161697;23;20166;-78
2023/03/31 21:25:15;;;;;;;3.60;1.73;;;9.30;99.90;;;;;;6160398;23;20226;-78
2023/03/31 21:27:40;;;;;;;2.30;1.25;;;9.30;99.90;;;;;;6160620;23;20175;-78
2023/03/31 21:30:06;;;;;;;8.98;2.25;;;9.30;99.90;;;;;;6186740;23;20159;-78
2023/03/31 21:32:32;;;;;;;3.35;1.80;;;9.30;99.90;;;;;;6186563;23;20158;-78
2023/03/31 21:34:58;;;;;;;6.20;1.95;;;9.30;99.90;;;;;;6160538;23;20159;-78
2023/03/31 21:37:26;;;;;;;4.90;1.80;;;9.30;99.90;;;;;;6160412;23;20205;-78
2023/03/31 21:39:51;;;;;;;4.20;1.63;;;9.30;99.90;;;;;;6161503;23;20179;-78
2023/03/31 21:42:17;;;;;;;4.65;1.50;;;9.40;99.90;;;;;;6161201;23;20169;-78
2023/03/31 21:44:42;;;;;;;5.70;2.17;;;9.40;99.90;;;;;;6161288;23;20186;-78
2023/03/31 21:47:08;;;;;;;5.60;1.80;;;9.40;99.90;;;;;;6160830;23;20175;-78
2023/03/31 21:49:34;;;;;;;4.20;1.58;;;9.50;99.90;;;;;;6186593;23;20531;-78
2023/03/31 21:51:59;;;;;;;3.00;1.50;;;9.50;99.90;;;;;;6186534;23;20166;-78
2023/03/31 21:54:25;;;;;;;4.53;1.75;;;9.50;99.90;;;;;;6161333;23;20151;-78
2023/03/31 21:56:52;;;;;;;5.82;1.42;;;9.50;99.90;;;;;;6186731;23;20182;-78
2023/03/31 21:59:18;;;;;;;4.10;1.42;;;9.50;99.90;;;;;;6160525;23;20189;-78
2023/03/31 22:01:43;;;;;;;5.35;1.50;;;9.50;99.90;;;;;;6160027;23;20237;-78
2023/03/31 22:04:09;;;;;;;4.65;1.70;;;9.50;99.90;;;;;;6160009;23;20190;-78
2023/03/31 22:06:36;;;;;;;4.82;1.73;;;9.50;99.90;;;;;;6186235;23;20640;-78
2023/03/31 22:09:02;;;;;;;6.45;1.42;;;9.50;99.90;;;;;;6160060;23;20278;-78
2023/03/31 22:11:27;;;;;;;4.15;1.65;;;9.50;99.90;;;;;;6160103;23;20187;-78
2023/03/31 22:13:53;;;;;;;3.70;1.88;;;9.50;99.90;;;;;;6160106;23;20155;-78
2023/03/31 22:16:21;;;;;;;4.82;2.10;;;9.50;99.90;;;;;;6160515;23;20197;-78
2023/03/31 22:18:48;;;;;;;4.63;1.60;;;9.50;99.90;;;;;;6160197;23;20170;-78
2023/03/31 22:21:26;;;;;;;4.25;1.30;;;9.50;99.90;;;;;;6159975;23;20238;-78
2023/03/31 22:23:57;;;;;;;6.43;1.85;;;9.50;99.90;;;;;;6161197;23;20151;-78
2023/03/31 22:26:23;;;;;;;4.50;1.40;;;9.50;99.90;;;;;;6160782;23;20182;-78
2023/03/31 22:28:49;;;;;;;5.82;1.50;;;9.50;99.90;;;;;;6160123;23;20155;-78
2023/03/31 22:31:15;;;;;;;6.65;1.63;;;9.50;99.90;;;;;;6160125;23;20162;-78
2023/03/31 22:33:40;;;;;;;3.40;1.48;;;9.50;99.90;;;;;;6159701;23;20163;-78
2023/03/31 22:36:06;;;;;;;3.58;1.70;;;9.60;99.90;;;;;;6160519;23;20186;-78
2023/03/31 22:38:32;;;;;;;6.30;1.88;;;9.60;99.90;;;;;;6159915;23;20205;-78
2023/03/31 22:40:58;;;;;;;5.32;1.40;;;9.60;99.90;;;;;;6159832;23;20186;-78
2023/03/31 22:43:30;;;;;;;4.63;2.08;;;9.60;99.90;;;;;;6159760;23;20159;-78
2023/03/31 22:45:55;;;;;;;3.92;1.38;;;9.60;99.90;;;;;;6159513;23;20225;-78
2023/03/31 22:48:21;;;;;;;3.72;1.50;;;9.60;99.90;;;;;;6159629;23;20154;-78
2023/03/31 22:50:47;;;;;;;4.40;1.65;;;9.60;99.90;;;;;;6161019;23;20261;-78
2023/03/31 22:53:12;;;;;;;3.72;1.40;;;9.60;99.90;;;;;;6160187;23;20511;-78
2023/03/31 22:55:43;;;;;;;5.07;1.77;;;9.60;99.90;;;;;;6159760;23;20163;-78
2023/03/31 22:58:10;;;;;;;3.25;1.20;;;9.60;99.90;;;;;;6160043;23;20362;-78
2023/03/31 23:00:36;;;;;;;4.30;1.73;;;9.60;99.90;;;;;;6159524;23;20569;-77
2023/03/31 23:03:02;;;;;;;3.30;1.50;;;9.60;99.90;;;;;;6186290;23;20155;-78
2023/03/31 23:05:27;;;;;;;6.28;1.75;;;9.50;99.90;;;;;;6159906;23;20622;-78
2023/03/31 23:07:53;;;;;;;2.47;1.33;;;9.50;99.90;;;;;;6160883;23;20183;-78
2023/03/31 23:10:19;;;;;;;2.78;1.50;;;9.50;99.90;;;;;;6160047;23;20611;-78
2023/03/31 23:12:45;;;;;;;4.30;1.90;;;9.60;99.90;;;;;;6160724;23;20237;-78
2023/03/31 23:15:10;;;;;;;3.35;1.20;;;9.50;99.90;;;;;;6159893;23;20717;-78
2023/03/31 23:17:36;;;;;;;6.85;1.67;;;9.60;99.90;;;;;;6159572;23;20182;-78
2023/03/31 23:20:02;;;;;;;3.85;1.33;;;9.50;99.90;;;;;;6186156;23;20480;-78
2023/03/31 23:22:28;;;;;;;3.08;1.67;;;9.50;99.90;;;;;;6160156;23;20166;-78
2023/03/31 23:24:54;;;;;;;6.68;2.05;;;9.50;99.90;;;;;;6159856;23;20158;-78
2023/03/31 23:27:20;;;;;;;3.78;1.40;;;9.50;99.90;;;;;;6160857;23;20171;-78
2023/03/31 23:29:46;;;;;;;4.60;1.63;;;9.50;99.90;;;;;;6159827;23;20173;-78
2023/03/31 23:32:12;;;;;;;4.25;1.85;;;9.50;99.90;;;;;;6160131;23;20237;-78
2023/03/31 23:34:42;;;;;;;4.63;1.50;;;9.50;99.90;;;;;;6161137;23;20237;-78
2023/03/31 23:37:14;;;;;;;3.00;1.52;;;9.40;99.90;;;;;;6159361;23;20651;-78
2023/03/31 23:39:40;;;;;;;5.13;1.75;;;9.40;99.90;;;;;;6159680;23;20186;-78
2023/03/31 23:42:07;;;;;;;3.75;1.20;;;9.40;99.90;;;;;;6160984;23;20166;-78
2023/03/31 23:44:35;;;;;;;4.43;1.50;;;9.40;99.90;;;;;;6161808;23;20201;-78
2023/03/31 23:47:01;;;;;;;3.85;1.75;;;9.40;99.90;;;;;;6161409;23;20206;-78
2023/03/31 23:49:27;;;;;;;2.85;1.50;;;9.40;99.90;;;;;;6161333;23;20600;-78
2023/03/31 23:51:52;;;;;;;5.60;1.65;;;9.30;99.90;;;;;;6161462;23;20269;-78
2023/03/31 23:54:18;;;;;;;3.25;1.40;;;9.30;99.90;;;;;;6161201;23;20158;-78
2023/03/31 23:56:43;;;;;;;5.95;1.60;;;9.20;99.90;;;;;;6161583;23;20179;-78
2023/03/31 23:59:09;;;;;;;6.40;1.65;;;9.30;99.90;;;;;;6187390;23;20155;-78
